createdAt,value
2023-01-25T00:01:21.426Z,-5.94
2023-01-25T00:04:23.741Z,-5.95
2023-01-25T00:07:25.676Z,-5.99
2023-01-25T00:10:27.714Z,-6.00
2023-01-25T00:13:29.632Z,-6.02
2023-01-25T00:16:32.049Z,-6.02
2023-01-25T00:19:34.039Z,-6.02
2023-01-25T00:22:36.125Z,-6.02
2023-01-25T00:25:38.128Z,-6.03
2023-01-25T00:28:40.066Z,-5.99
2023-01-25T00:31:57.285Z,-5.96
2023-01-25T00:34:59.373Z,-5.96
2023-01-25T00:38:06.460Z,-5.91
2023-01-25T00:41:10.076Z,-5.90
2023-01-25T00:44:12.025Z,-5.88
2023-01-25T00:47:14.817Z,-5.87
2023-01-25T00:50:16.825Z,-5.83
2023-01-25T00:53:18.691Z,-5.79
2023-01-25T00:56:20.921Z,-5.72
2023-01-25T00:59:24.630Z,-5.69
2023-01-25T01:02:26.912Z,-5.61
2023-01-25T01:05:29.591Z,-5.53
2023-01-25T01:08:34.851Z,-5.44
2023-01-25T01:11:37.895Z,-5.38
2023-01-25T01:14:39.942Z,-5.30
2023-01-25T01:17:41.945Z,-5.23
2023-01-25T01:20:49.690Z,-5.17
2023-01-25T01:23:51.651Z,-5.10
2023-01-25T01:26:53.641Z,-5.05
2023-01-25T01:29:55.529Z,-4.97
2023-01-25T01:32:57.701Z,-4.90
2023-01-25T01:35:59.727Z,-4.86
2023-01-25T01:39:01.825Z,-4.81
2023-01-25T01:42:04.699Z,-4.79
2023-01-25T01:45:44.680Z,-4.75
2023-01-25T01:48:54.488Z,-4.74
2023-01-25T01:52:03.422Z,-4.69
2023-01-25T01:55:22.107Z,-4.62
2023-01-25T01:58:27.761Z,-4.54
2023-01-25T02:01:30.673Z,-4.50
2023-01-25T02:04:33.693Z,-4.46
2023-01-25T02:07:37.284Z,-4.43
2023-01-25T02:10:41.134Z,-4.41
2023-01-25T02:13:43.979Z,-4.37
2023-01-25T02:16:50.790Z,-4.34
2023-01-25T02:20:06.444Z,-4.32
2023-01-25T02:23:37.595Z,-4.32
2023-01-25T02:26:40.329Z,-4.29
2023-01-25T02:29:44.503Z,-4.25
2023-01-25T02:32:46.516Z,-4.22
2023-01-25T02:35:53.972Z,-4.19
2023-01-25T02:39:10.204Z,-4.16
2023-01-25T02:42:12.667Z,-4.12
2023-01-25T02:45:18.156Z,-4.14
2023-01-25T02:48:20.913Z,-4.14
2023-01-25T02:51:24.876Z,-4.10
2023-01-25T02:54:29.923Z,-4.06
2023-01-25T02:57:31.849Z,-4.06
2023-01-25T03:00:36.692Z,-4.03
2023-01-25T03:03:39.195Z,-3.97
2023-01-25T03:06:42.016Z,-3.94
2023-01-25T03:09:44.314Z,-3.88
2023-01-25T03:12:46.441Z,-3.87
2023-01-25T03:15:48.445Z,-3.87
2023-01-25T03:18:53.399Z,-3.83
2023-01-25T03:21:58.133Z,-3.81
2023-01-25T03:25:00.964Z,-3.85
2023-01-25T03:28:03.580Z,-3.84
2023-01-25T03:31:06.691Z,-3.84
2023-01-25T03:34:08.657Z,-3.88
2023-01-25T03:37:14.693Z,-3.86
2023-01-25T03:40:18.041Z,-3.86
2023-01-25T03:43:25.314Z,-3.85
2023-01-25T03:46:28.080Z,-3.83
2023-01-25T03:49:30.027Z,-3.87
2023-01-25T03:52:38.565Z,-3.86
2023-01-25T03:55:41.969Z,-3.81
2023-01-25T03:58:45.637Z,-3.81
2023-01-25T04:01:47.906Z,-3.80
2023-01-25T04:04:50.541Z,-3.76
2023-01-25T04:07:54.455Z,-3.71
2023-01-25T04:11:07.947Z,-3.67
2023-01-25T04:14:10.554Z,-3.67
2023-01-25T04:17:22.516Z,-3.67
2023-01-25T04:20:35.481Z,-3.66
2023-01-25T04:23:37.514Z,-3.64
2023-01-25T04:26:40.049Z,-3.63
2023-01-25T04:29:42.274Z,-3.65
2023-01-25T04:32:50.290Z,-3.60
2023-01-25T04:36:10.324Z,-3.59
2023-01-25T04:39:13.191Z,-3.61
2023-01-25T04:42:15.305Z,-3.59
2023-01-25T04:45:20.283Z,-3.59
2023-01-25T04:48:23.089Z,-3.59
2023-01-25T04:51:30.676Z,-3.60
2023-01-25T04:54:32.936Z,-3.56
2023-01-25T04:57:35.328Z,-3.57
2023-01-25T05:00:37.480Z,-3.56
2023-01-25T05:03:40.251Z,-3.56
2023-01-25T05:06:49.437Z,-3.54
2023-01-25T05:09:52.245Z,-3.49
2023-01-25T05:12:57.066Z,-3.48
2023-01-25T05:15:59.379Z,-3.48
2023-01-25T05:19:01.629Z,-3.46
2023-01-25T05:22:30.603Z,-3.43
2023-01-25T05:25:51.175Z,-3.41
2023-01-25T05:29:00.740Z,-3.41
2023-01-25T05:32:21.811Z,-3.39
2023-01-25T05:35:24.700Z,-3.40
2023-01-25T05:38:30.515Z,-3.35
2023-01-25T05:41:32.738Z,-3.34
2023-01-25T05:44:34.768Z,-3.29
2023-01-25T05:47:36.789Z,-3.30
2023-01-25T05:50:38.777Z,-3.30
2023-01-25T05:53:47.031Z,-3.26
2023-01-25T05:56:50.495Z,-3.25
2023-01-25T05:59:53.552Z,-3.28
2023-01-25T06:02:57.028Z,-3.32
2023-01-25T06:06:03.064Z,-3.31
2023-01-25T06:09:06.704Z,-3.31
2023-01-25T06:12:10.822Z,-3.31
2023-01-25T06:15:12.772Z,-3.40
2023-01-25T06:18:15.365Z,-3.32
2023-01-25T06:21:37.551Z,-3.32
2023-01-25T06:24:39.496Z,-3.37
2023-01-25T06:27:41.454Z,-3.39
2023-01-25T06:30:43.462Z,-3.41
2023-01-25T06:33:50.214Z,-3.40
2023-01-25T06:36:54.224Z,-3.36
2023-01-25T06:39:56.228Z,-3.39
2023-01-25T06:43:11.624Z,-3.36
2023-01-25T06:46:14.150Z,-3.39
2023-01-25T06:49:16.189Z,-3.38
2023-01-25T06:52:18.118Z,-3.35
2023-01-25T06:55:20.430Z,-3.31
2023-01-25T06:58:22.316Z,-3.31
2023-01-25T07:01:30.433Z,-3.26
2023-01-25T07:04:32.679Z,-3.17
2023-01-25T07:07:34.752Z,-3.15
2023-01-25T07:10:36.719Z,-3.15
2023-01-25T07:13:38.604Z,-3.14
2023-01-25T07:16:40.637Z,-3.03
2023-01-25T07:19:42.544Z,-3.01
2023-01-25T07:22:44.516Z,-2.98
2023-01-25T07:25:47.933Z,-2.90
2023-01-25T07:28:50.604Z,-2.82
2023-01-25T07:31:52.667Z,-2.78
2023-01-25T07:34:54.664Z,-2.70
2023-01-25T07:37:56.556Z,-2.63
2023-01-25T07:40:58.671Z,-2.56
2023-01-25T07:44:00.822Z,-2.56
2023-01-25T07:47:21.296Z,-2.42
2023-01-25T07:50:23.249Z,-2.30
2023-01-25T07:53:25.139Z,-2.26
2023-01-25T07:56:29.616Z,-2.23
2023-01-25T07:59:32.137Z,-2.17
2023-01-25T08:02:34.082Z,-2.14
2023-01-25T08:05:36.134Z,-2.08
2023-01-25T08:08:47.703Z,-2.02
2023-01-25T08:11:49.697Z,-1.96
2023-01-25T08:14:52.003Z,-1.91
2023-01-25T08:17:53.928Z,-1.79
2023-01-25T08:20:59.370Z,-1.73
2023-01-25T08:24:04.271Z,-1.74
2023-01-25T08:27:06.218Z,-1.70
2023-01-25T08:30:08.890Z,-1.66
2023-01-25T08:33:13.385Z,-1.64
2023-01-25T08:36:17.708Z,-1.61
2023-01-25T08:39:19.827Z,-1.58
2023-01-25T08:42:22.499Z,-1.50
2023-01-25T08:45:24.667Z,-1.42
2023-01-25T08:48:26.908Z,-1.45
2023-01-25T08:51:31.597Z,-1.45
2023-01-25T08:54:33.695Z,-1.32
2023-01-25T08:57:35.610Z,-1.37
2023-01-25T09:00:41.251Z,-1.31
2023-01-25T09:03:44.870Z,-1.23
2023-01-25T09:06:46.956Z,-1.17
2023-01-25T09:09:48.890Z,-1.15
2023-01-25T09:12:50.835Z,-1.06
2023-01-25T09:15:52.988Z,-0.99
2023-01-25T09:19:00.183Z,-0.97
2023-01-25T09:22:03.581Z,-0.90
2023-01-25T09:25:05.873Z,-0.82
2023-01-25T09:28:11.605Z,-0.65
2023-01-25T09:31:21.736Z,-0.52
2023-01-25T09:34:43.005Z,-0.40
2023-01-25T09:37:44.986Z,-0.30
2023-01-25T09:41:05.910Z,-0.25
2023-01-25T09:44:32.770Z,-0.19
2023-01-25T09:47:40.489Z,-0.14
2023-01-25T09:51:23.766Z,0.06
2023-01-25T09:54:29.926Z,0.10
2023-01-25T09:57:41.329Z,0.24
2023-01-25T10:00:49.920Z,0.35
2023-01-25T10:04:06.216Z,0.46
2023-01-25T10:07:45.592Z,0.52
2023-01-25T10:10:51.096Z,0.48
2023-01-25T10:13:56.090Z,0.53
2023-01-25T10:17:14.586Z,0.53
2023-01-25T10:20:16.546Z,0.57
2023-01-25T10:23:39.688Z,0.67
2023-01-25T10:26:46.910Z,0.68
2023-01-25T10:29:50.353Z,0.67
2023-01-25T10:32:56.121Z,0.74
2023-01-25T10:36:03.126Z,0.70
2023-01-25T10:39:07.722Z,0.60
2023-01-25T10:42:15.575Z,0.59
2023-01-25T10:45:18.357Z,0.60
2023-01-25T10:48:24.754Z,0.77
2023-01-25T10:51:35.547Z,0.95
2023-01-25T10:54:37.657Z,0.99
2023-01-25T10:57:44.345Z,1.01
2023-01-25T11:00:51.946Z,1.16
2023-01-25T11:03:54.382Z,1.24
2023-01-25T11:06:56.572Z,1.29
2023-01-25T11:09:58.462Z,1.34
2023-01-25T11:13:27.404Z,1.37
2023-01-25T11:16:40.246Z,1.43
2023-01-25T11:19:42.247Z,1.50
2023-01-25T11:22:56.381Z,1.48
2023-01-25T11:26:18.951Z,1.54
2023-01-25T11:29:24.789Z,1.44
2023-01-25T11:32:27.356Z,1.40
2023-01-25T11:35:33.474Z,1.40
2023-01-25T11:38:36.099Z,1.37
2023-01-25T11:42:01.755Z,1.34
2023-01-25T11:45:15.933Z,1.34
2023-01-25T11:48:36.777Z,1.34
2023-01-25T11:51:54.001Z,1.31
2023-01-25T11:55:23.884Z,1.30
2023-01-25T11:58:43.516Z,1.29
2023-01-25T12:02:10.984Z,1.26
2023-01-25T12:05:22.500Z,1.20
2023-01-25T12:08:47.058Z,1.23
2023-01-25T12:12:04.158Z,1.24
2023-01-25T12:15:24.952Z,1.24
2023-01-25T12:18:49.907Z,1.25
2023-01-25T12:22:13.404Z,1.25
2023-01-25T12:25:20.764Z,1.20
2023-01-25T12:28:38.653Z,1.18
2023-01-25T12:31:53.785Z,1.17
2023-01-25T12:35:19.536Z,1.18
2023-01-25T12:38:30.409Z,1.19
2023-01-25T12:41:36.155Z,1.18
2023-01-25T12:44:55.027Z,1.19
2023-01-25T12:48:18.855Z,1.16
2023-01-25T12:51:24.509Z,1.12
2023-01-25T12:54:41.180Z,1.15
2023-01-25T12:58:16.393Z,1.13
2023-01-25T13:01:57.145Z,1.09
2023-01-25T13:05:21.973Z,1.07
2023-01-25T13:08:53.482Z,1.06
2023-01-25T13:11:55.510Z,1.01
2023-01-25T13:14:57.477Z,0.96
2023-01-25T13:17:59.409Z,0.97
2023-01-25T13:21:04.663Z,0.94
2023-01-25T13:24:18.875Z,0.94
2023-01-25T13:27:27.180Z,0.89
2023-01-25T13:30:31.073Z,0.86
2023-01-25T13:33:36.303Z,0.84
2023-01-25T13:36:46.171Z,0.81
2023-01-25T13:40:09.677Z,0.75
2023-01-25T13:43:11.959Z,0.71
2023-01-25T13:46:17.412Z,0.68
2023-01-25T13:49:27.383Z,0.63
2023-01-25T13:52:33.027Z,0.60
2023-01-25T13:55:40.426Z,0.53
2023-01-25T13:58:48.134Z,0.45
2023-01-25T14:01:52.941Z,0.39
2023-01-25T14:04:55.265Z,0.33
2023-01-25T14:07:57.421Z,0.23
2023-01-25T14:10:59.712Z,0.14
2023-01-25T14:14:16.607Z,0.06
2023-01-25T14:17:22.159Z,-0.03
2023-01-25T14:20:24.516Z,-0.08
2023-01-25T14:23:28.181Z,-0.13
2023-01-25T14:26:39.317Z,-0.22
2023-01-25T14:29:41.830Z,-0.28
2023-01-25T14:32:43.745Z,-0.34
2023-01-25T14:35:55.582Z,-0.35
2023-01-25T14:38:59.506Z,-0.40
2023-01-25T14:42:02.197Z,-0.44
2023-01-25T14:45:04.461Z,-0.49
2023-01-25T14:48:06.497Z,-0.54
2023-01-25T14:51:27.821Z,-0.58
2023-01-25T14:54:34.317Z,-0.62
2023-01-25T14:57:40.677Z,-0.68
2023-01-25T15:00:42.774Z,-0.72
2023-01-25T15:03:45.004Z,-0.75
2023-01-25T15:06:59.182Z,-0.81
2023-01-25T15:10:30.026Z,-0.84
2023-01-25T15:13:32.092Z,-0.89
2023-01-25T15:16:34.988Z,-0.93
2023-01-25T15:19:37.277Z,-1.05
2023-01-25T15:22:39.221Z,-1.11
2023-01-25T15:25:57.654Z,-1.24
2023-01-25T15:29:12.281Z,-1.33
2023-01-25T15:32:23.370Z,-1.42
2023-01-25T15:35:25.330Z,-1.51
2023-01-25T15:38:27.310Z,-1.55
2023-01-25T15:41:29.195Z,-1.62
2023-01-25T15:44:31.164Z,-1.72
2023-01-25T15:47:33.497Z,-1.79
2023-01-25T15:50:35.475Z,-1.81
2023-01-25T15:53:37.693Z,-1.87
2023-01-25T15:56:42.020Z,-1.94
2023-01-25T15:59:44.088Z,-1.96
2023-01-25T16:02:46.400Z,-1.99
2023-01-25T16:05:51.928Z,-2.05
2023-01-25T16:08:54.144Z,-2.09
2023-01-25T16:11:58.424Z,-2.18
2023-01-25T16:15:00.581Z,-2.22
2023-01-25T16:18:02.717Z,-2.26
2023-01-25T16:21:04.743Z,-2.29
2023-01-25T16:24:07.401Z,-2.32
2023-01-25T16:27:16.862Z,-2.40
2023-01-25T16:30:25.934Z,-2.44
2023-01-25T16:33:27.880Z,-2.52
2023-01-25T16:36:31.660Z,-2.53
2023-01-25T16:39:33.644Z,-2.55
2023-01-25T16:42:35.599Z,-2.54
2023-01-25T16:45:38.017Z,-2.51
2023-01-25T16:48:39.933Z,-2.51
2023-01-25T16:51:41.852Z,-2.50
2023-01-25T16:54:43.795Z,-2.49
2023-01-25T16:57:50.355Z,-2.47
2023-01-25T17:00:52.414Z,-2.46
2023-01-25T17:03:55.900Z,-2.46
2023-01-25T17:06:59.110Z,-2.45
2023-01-25T17:10:01.082Z,-2.45
2023-01-25T17:13:03.160Z,-2.46
2023-01-25T17:16:05.854Z,-2.46
2023-01-25T17:19:12.552Z,-2.47
2023-01-25T17:22:14.528Z,-2.48
2023-01-25T17:25:16.968Z,-2.50
2023-01-25T17:28:29.856Z,-2.46
2023-01-25T17:31:33.961Z,-2.49
2023-01-25T17:34:35.993Z,-2.50
2023-01-25T17:37:41.179Z,-2.50
2023-01-25T17:40:43.227Z,-2.55
2023-01-25T17:43:52.545Z,-2.62
2023-01-25T17:46:54.510Z,-2.67
2023-01-25T17:49:56.512Z,-2.70
2023-01-25T17:52:58.632Z,-2.76
2023-01-25T17:56:05.712Z,-2.80
2023-01-25T17:59:11.850Z,-2.86
2023-01-25T18:02:14.306Z,-2.96
2023-01-25T18:05:16.748Z,-3.07
2023-01-25T18:08:18.877Z,-3.13
2023-01-25T18:11:26.210Z,-3.22
2023-01-25T18:14:29.942Z,-3.28
2023-01-25T18:17:35.848Z,-3.32
2023-01-25T18:20:37.772Z,-3.38
2023-01-25T18:23:41.720Z,-3.40
2023-01-25T18:26:44.110Z,-3.43
2023-01-25T18:29:55.578Z,-3.49
2023-01-25T18:32:57.563Z,-3.53
2023-01-25T18:36:02.737Z,-3.55
2023-01-25T18:39:06.894Z,-3.56
2023-01-25T18:42:10.078Z,-3.59
2023-01-25T18:45:13.331Z,-3.64
2023-01-25T18:48:20.313Z,-3.65
2023-01-25T18:51:23.295Z,-3.64
2023-01-25T18:54:25.247Z,-3.69
2023-01-25T18:57:27.702Z,-3.67
2023-01-25T19:00:33.931Z,-3.74
2023-01-25T19:03:35.899Z,-3.77
2023-01-25T19:06:37.785Z,-3.77
2023-01-25T19:09:42.299Z,-3.80
2023-01-25T19:12:44.300Z,-3.83
2023-01-25T19:15:46.367Z,-3.84
2023-01-25T19:18:52.161Z,-3.86
2023-01-25T19:21:54.168Z,-3.92
2023-01-25T19:24:56.075Z,-3.97
2023-01-25T19:27:58.002Z,-4.03
2023-01-25T19:31:07.274Z,-4.08
2023-01-25T19:34:09.336Z,-4.10
2023-01-25T19:37:11.600Z,-4.09
2023-01-25T19:40:13.754Z,-4.12
2023-01-25T19:43:15.643Z,-4.15
2023-01-25T19:46:19.940Z,-4.19
2023-01-25T19:49:22.457Z,-4.23
2023-01-25T19:52:24.421Z,-4.26
2023-01-25T19:55:26.358Z,-4.24
2023-01-25T19:58:28.367Z,-4.28
2023-01-25T20:01:30.801Z,-4.32
2023-01-25T20:04:32.835Z,-4.31
2023-01-25T20:07:34.767Z,-4.31
2023-01-25T20:10:36.731Z,-4.33
2023-01-25T20:13:40.366Z,-4.40
2023-01-25T20:16:43.036Z,-4.44
2023-01-25T20:19:45.014Z,-4.52
2023-01-25T20:22:49.299Z,-4.57
2023-01-25T20:25:59.141Z,-4.56
2023-01-25T20:29:01.184Z,-4.56
2023-01-25T20:32:04.582Z,-4.58
2023-01-25T20:35:08.840Z,-4.61
2023-01-25T20:38:11.316Z,-4.61
2023-01-25T20:41:15.720Z,-4.61
2023-01-25T20:44:18.723Z,-4.61
2023-01-25T20:47:20.598Z,-4.69
2023-01-25T20:50:22.460Z,-4.73
2023-01-25T20:53:24.437Z,-4.75
2023-01-25T20:56:26.517Z,-4.79
2023-01-25T20:59:28.485Z,-4.85
2023-01-25T21:02:30.557Z,-4.90
2023-01-25T21:05:32.525Z,-4.97
2023-01-25T21:08:34.468Z,-5.04
2023-01-25T21:11:36.453Z,-5.07
2023-01-25T21:14:38.390Z,-5.10
2023-01-25T21:17:40.371Z,-5.13
2023-01-25T21:20:42.410Z,-5.13
2023-01-25T21:23:46.176Z,-5.16
2023-01-25T21:26:48.181Z,-5.17
2023-01-25T21:29:50.131Z,-5.21
2023-01-25T21:32:52.060Z,-5.26
2023-01-25T21:35:55.512Z,-5.28
2023-01-25T21:38:58.352Z,-5.33
2023-01-25T21:42:00.377Z,-5.36
2023-01-25T21:45:20.729Z,-5.36
2023-01-25T21:48:42.703Z,-5.40
2023-01-25T21:51:50.332Z,-5.48
2023-01-25T21:54:52.274Z,-5.51
2023-01-25T21:57:54.197Z,-5.55
2023-01-25T22:01:01.090Z,-5.58
2023-01-25T22:04:03.158Z,-5.63
2023-01-25T22:07:06.933Z,-5.68
2023-01-25T22:10:09.647Z,-5.71
2023-01-25T22:13:13.141Z,-5.72
2023-01-25T22:16:15.413Z,-5.70
2023-01-25T22:19:18.040Z,-5.69
2023-01-25T22:22:20.203Z,-5.70
2023-01-25T22:25:22.102Z,-5.69
2023-01-25T22:28:27.234Z,-5.73
2023-01-25T22:31:32.555Z,-5.74
2023-01-25T22:34:34.635Z,-5.74
2023-01-25T22:37:38.099Z,-5.73
2023-01-25T22:40:40.281Z,-5.74
2023-01-25T22:43:43.000Z,-5.80
2023-01-25T22:46:44.904Z,-5.84
2023-01-25T22:49:46.773Z,-5.86
2023-01-25T22:52:49.127Z,-5.88
2023-01-25T22:55:51.074Z,-5.89
2023-01-25T22:58:53.447Z,-5.87
2023-01-25T23:01:55.401Z,-5.91
2023-01-25T23:04:57.719Z,-5.91
2023-01-25T23:07:59.777Z,-5.95
2023-01-25T23:11:07.569Z,-5.98
2023-01-25T23:14:30.786Z,-6.02
2023-01-25T23:17:52.372Z,-6.07
2023-01-25T23:20:55.115Z,-6.10
2023-01-25T23:24:00.973Z,-6.10
2023-01-25T23:27:02.956Z,-6.11
2023-01-25T23:30:07.349Z,-6.11
2023-01-25T23:33:09.239Z,-6.14
2023-01-25T23:36:16.816Z,-6.19
2023-01-25T23:39:19.028Z,-6.19
2023-01-25T23:42:21.029Z,-6.20
2023-01-25T23:45:23.133Z,-6.24
2023-01-25T23:48:25.284Z,-6.28
2023-01-25T23:51:27.197Z,-6.30
2023-01-25T23:54:29.450Z,-6.35
2023-01-25T23:57:31.526Z,-6.38
